createdAt,value
2023-05-11T00:00:01.252Z,72993.59
2023-05-11T00:00:33.676Z,72991.59
2023-05-11T00:01:08.925Z,72997.59
2023-05-11T00:01:41.289Z,72987.63
2023-05-11T00:02:13.816Z,72993.59
2023-05-11T00:02:46.366Z,72989.59
2023-05-11T00:03:21.533Z,72995.59
2023-05-11T00:03:54.090Z,72993.59
2023-05-11T00:04:26.578Z,72993.59
2023-05-11T00:05:01.552Z,72987.63
2023-05-11T00:05:33.937Z,72993.59
2023-05-11T00:06:09.166Z,72987.63
2023-05-11T00:06:41.481Z,72989.59
2023-05-11T00:07:16.476Z,72991.59
2023-05-11T00:07:51.443Z,72991.59
2023-05-11T00:08:23.754Z,72991.59
2023-05-11T00:08:56.074Z,72993.59
2023-05-11T00:09:31.636Z,72995.59
2023-05-11T00:10:04.144Z,72991.59
2023-05-11T00:10:36.513Z,72989.59
2023-05-11T00:11:11.910Z,72987.63
2023-05-11T00:11:44.227Z,72989.59
2023-05-11T00:12:16.591Z,72985.63
2023-05-11T00:12:51.515Z,72993.59
2023-05-11T00:13:23.895Z,72989.59
2023-05-11T00:13:56.208Z,72989.59
2023-05-11T00:14:31.346Z,72989.59
2023-05-11T00:15:04.065Z,72993.59
2023-05-11T00:15:36.491Z,72993.59
2023-05-11T00:16:11.474Z,72993.59
2023-05-11T00:16:43.969Z,72991.59
2023-05-11T00:17:16.318Z,72989.59
2023-05-11T00:17:48.720Z,72989.59
2023-05-11T00:18:24.228Z,72989.59
2023-05-11T00:18:56.708Z,72995.59
2023-05-11T00:19:31.648Z,72993.59
2023-05-11T00:20:07.301Z,72993.59
2023-05-11T00:20:39.598Z,72993.59
2023-05-11T00:21:11.912Z,72991.59
2023-05-11T00:21:46.857Z,72997.59
2023-05-11T00:22:21.869Z,72995.59
2023-05-11T00:22:54.206Z,72997.59
2023-05-11T00:23:29.190Z,73001.59
2023-05-11T00:24:01.502Z,72991.59
2023-05-11T00:24:33.822Z,72997.59
2023-05-11T00:25:09.953Z,72993.59
2023-05-11T00:25:42.307Z,73001.59
2023-05-11T00:26:14.602Z,73001.59
2023-05-11T00:26:51.921Z,72997.59
2023-05-11T00:27:24.778Z,72997.59
2023-05-11T00:27:57.182Z,72999.59
2023-05-11T00:28:32.245Z,73001.59
2023-05-11T00:29:04.652Z,73001.59
2023-05-11T00:29:36.992Z,72993.59
2023-05-11T00:30:11.437Z,73001.59
2023-05-11T00:30:46.359Z,72995.59
2023-05-11T00:31:18.724Z,72999.59
2023-05-11T00:31:51.340Z,72993.59
2023-05-11T00:32:23.669Z,72997.59
2023-05-11T00:32:58.713Z,72993.59
2023-05-11T00:33:31.046Z,72989.59
2023-05-11T00:34:03.396Z,72993.59
2023-05-11T00:34:38.337Z,72991.59
2023-05-11T00:35:11.331Z,72989.59
2023-05-11T00:35:44.007Z,72995.59
2023-05-11T00:36:18.916Z,72991.59
2023-05-11T00:36:51.237Z,72987.63
2023-05-11T00:37:26.345Z,72989.59
2023-05-11T00:38:01.376Z,72991.59
2023-05-11T00:38:34.628Z,72989.59
2023-05-11T00:39:06.951Z,72993.59
2023-05-11T00:39:41.874Z,72993.59
2023-05-11T00:40:14.298Z,72993.59
2023-05-11T00:40:46.696Z,72989.59
2023-05-11T00:41:21.793Z,72989.59
2023-05-11T00:41:54.646Z,72985.63
2023-05-11T00:42:26.965Z,72993.59
2023-05-11T00:43:03.662Z,72989.59
2023-05-11T00:43:36.222Z,72989.59
2023-05-11T00:44:09.174Z,72993.59
2023-05-11T00:44:44.473Z,72989.59
2023-05-11T00:45:16.854Z,72993.59
2023-05-11T00:45:50.006Z,72995.59
2023-05-11T00:46:25.109Z,72989.59
2023-05-11T00:46:57.909Z,72987.63
2023-05-11T00:47:30.509Z,72993.59
2023-05-11T00:48:05.605Z,72993.59
2023-05-11T00:48:38.301Z,72991.59
2023-05-11T00:49:10.853Z,72993.59
2023-05-11T00:49:43.330Z,72995.59
2023-05-11T00:50:19.263Z,72995.59
2023-05-11T00:50:51.868Z,72989.59
2023-05-11T00:51:24.290Z,72989.59
2023-05-11T00:52:03.288Z,72993.59
2023-05-11T00:52:38.363Z,72993.59
2023-05-11T00:53:13.648Z,72993.59
2023-05-11T00:53:46.293Z,72991.59
2023-05-11T00:54:18.874Z,72997.59
2023-05-11T00:54:54.209Z,72987.63
2023-05-11T00:55:26.943Z,72993.59
2023-05-11T00:55:59.843Z,72993.59
2023-05-11T00:56:32.165Z,72989.59
2023-05-11T00:57:07.251Z,72993.59
2023-05-11T00:57:39.652Z,72993.59
2023-05-11T00:58:12.230Z,72989.59
2023-05-11T00:58:47.257Z,72991.59
2023-05-11T00:59:19.709Z,72987.63
2023-05-11T00:59:52.055Z,72989.59
2023-05-11T01:00:27.322Z,72993.59
2023-05-11T01:00:59.705Z,72985.63
2023-05-11T01:01:32.159Z,72993.59
2023-05-11T01:02:07.397Z,72989.59
2023-05-11T01:02:40.548Z,72993.59
2023-05-11T01:03:15.206Z,72989.59
2023-05-11T01:03:50.555Z,72993.59
2023-05-11T01:04:22.976Z,72993.59
2023-05-11T01:04:55.297Z,72995.59
2023-05-11T01:05:36.957Z,72993.59
2023-05-11T01:06:13.008Z,72995.59
2023-05-11T01:06:51.182Z,72997.59
2023-05-11T01:07:35.916Z,72997.59
2023-05-11T01:08:17.182Z,72993.59
2023-05-11T01:08:56.571Z,72997.59
2023-05-11T01:09:37.736Z,72993.59
2023-05-11T01:10:16.407Z,72993.59
2023-05-11T01:10:53.872Z,73001.59
2023-05-11T01:11:32.514Z,72997.59
2023-05-11T01:12:09.058Z,72989.59
2023-05-11T01:12:48.761Z,72997.59
2023-05-11T01:13:30.569Z,72995.59
2023-05-11T01:14:07.698Z,72995.59
2023-05-11T01:14:42.784Z,72993.59
2023-05-11T01:15:19.724Z,72993.59
2023-05-11T01:15:56.530Z,72993.59
2023-05-11T01:16:33.030Z,72995.59
2023-05-11T01:17:11.290Z,72993.59
2023-05-11T01:17:51.784Z,72993.59
2023-05-11T01:18:27.572Z,72989.59
2023-05-11T01:19:04.689Z,72991.59
2023-05-11T01:19:44.836Z,72993.59
2023-05-11T01:20:23.012Z,72991.59
2023-05-11T01:21:01.918Z,72993.59
2023-05-11T01:21:38.327Z,72991.59
2023-05-11T01:22:19.386Z,72991.59
2023-05-11T01:23:18.354Z,72989.59
2023-05-11T01:24:24.078Z,72995.59
2023-05-11T01:25:15.488Z,72989.59
2023-05-11T01:26:20.173Z,72989.59
2023-05-11T01:27:03.953Z,72987.63
2023-05-11T01:27:50.497Z,72989.59
2023-05-11T01:28:38.710Z,72989.59
2023-05-11T01:29:27.912Z,72985.63
2023-05-11T01:30:33.883Z,72991.59
2023-05-11T01:31:09.490Z,72989.59
2023-05-11T01:31:43.554Z,72989.59
2023-05-11T01:32:23.132Z,72989.59
2023-05-11T01:32:56.688Z,72993.59
2023-05-11T01:33:32.745Z,72985.63
2023-05-11T01:34:13.234Z,72985.63
2023-05-11T01:34:46.103Z,72989.59
2023-05-11T01:35:19.918Z,72989.59
2023-05-11T01:35:56.638Z,72997.59
2023-05-11T01:36:33.085Z,72991.59
2023-05-11T01:37:10.348Z,72993.59
2023-05-11T01:37:49.510Z,72993.59
2023-05-11T01:38:22.891Z,72997.59
2023-05-11T01:39:04.158Z,72993.59
2023-05-11T01:39:39.025Z,72995.59
2023-05-11T01:40:16.272Z,72997.59
2023-05-11T01:40:55.362Z,72999.59
2023-05-11T01:41:29.013Z,73001.59
2023-05-11T01:42:05.961Z,72999.59
2023-05-11T01:42:45.096Z,72997.59
2023-05-11T01:43:20.908Z,72991.59
2023-05-11T01:43:56.510Z,72993.59
2023-05-11T01:44:33.797Z,72997.59
2023-05-11T01:45:08.810Z,72997.59
2023-05-11T01:45:48.526Z,73001.59
2023-05-11T01:46:28.534Z,72995.59
2023-05-11T01:47:03.187Z,73001.59
2023-05-11T01:47:36.396Z,73001.59
2023-05-11T01:48:17.327Z,72997.59
2023-05-11T01:48:50.938Z,73001.59
2023-05-11T01:49:23.300Z,72997.59
2023-05-11T01:49:59.184Z,72995.59
2023-05-11T01:50:33.104Z,72997.59
2023-05-11T01:51:06.321Z,72999.59
2023-05-11T01:51:41.761Z,72995.59
2023-05-11T01:52:15.155Z,72995.59
2023-05-11T01:52:49.457Z,73001.59
2023-05-11T01:53:22.077Z,72993.59
2023-05-11T01:53:59.466Z,72997.59
2023-05-11T01:54:32.160Z,73005.56
2023-05-11T01:55:06.482Z,73003.59
2023-05-11T01:55:43.260Z,72999.59
2023-05-11T01:56:15.992Z,73005.56
2023-05-11T01:56:49.749Z,73005.56
2023-05-11T01:57:22.893Z,72999.59
2023-05-11T01:57:59.319Z,73001.59
2023-05-11T01:58:32.561Z,72999.59
2023-05-11T01:59:05.689Z,72999.59
2023-05-11T01:59:42.760Z,73005.56
2023-05-11T02:00:16.755Z,73005.56
2023-05-11T02:00:53.214Z,73005.56
2023-05-11T02:01:28.650Z,73005.56
2023-05-11T02:02:01.765Z,72997.59
2023-05-11T02:02:34.803Z,73005.56
2023-05-11T02:03:10.507Z,73009.56
2023-05-11T02:03:43.782Z,73007.56
2023-05-11T02:04:16.432Z,73001.59
2023-05-11T02:04:52.520Z,73005.56
2023-05-11T02:05:25.259Z,73005.56
2023-05-11T02:05:58.266Z,73007.56
2023-05-11T02:06:35.609Z,73005.56
2023-05-11T02:07:08.425Z,73003.59
2023-05-11T02:07:51.789Z,73001.59
2023-05-11T02:08:28.141Z,73005.56
2023-05-11T02:09:01.483Z,73001.59
2023-05-11T02:09:35.224Z,73001.59
2023-05-11T02:10:13.057Z,72997.59
2023-05-11T02:10:46.285Z,73001.59
2023-05-11T02:11:19.274Z,73001.59
2023-05-11T02:11:54.632Z,73001.59
2023-05-11T02:12:27.965Z,73005.56
2023-05-11T02:13:01.405Z,73005.56
2023-05-11T02:13:37.879Z,73001.59
2023-05-11T02:14:11.187Z,73009.56
2023-05-11T02:14:44.094Z,73007.56
2023-05-11T02:15:19.608Z,73005.56
2023-05-11T02:15:57.341Z,73007.56
2023-05-11T02:16:32.207Z,73007.56
2023-05-11T02:17:08.273Z,73007.56
2023-05-11T02:17:41.061Z,73011.56
2023-05-11T02:18:15.114Z,73001.59
2023-05-11T02:18:51.732Z,73005.56
2023-05-11T02:19:24.299Z,73005.56
2023-05-11T02:19:57.496Z,72997.59
2023-05-11T02:20:32.880Z,73005.56
2023-05-11T02:21:05.835Z,73001.59
2023-05-11T02:21:38.815Z,73003.59
2023-05-11T02:22:14.531Z,73001.59
2023-05-11T02:22:47.214Z,73001.59
2023-05-11T02:23:20.075Z,73003.59
2023-05-11T02:23:55.305Z,73003.59
2023-05-11T02:24:28.663Z,73001.59
2023-05-11T02:25:01.034Z,73005.56
2023-05-11T02:25:36.594Z,73003.59
2023-05-11T02:26:09.981Z,73005.56
2023-05-11T02:26:42.352Z,73001.59
2023-05-11T02:27:17.604Z,73005.56
2023-05-11T02:27:49.993Z,73005.56
2023-05-11T02:28:22.416Z,73005.56
2023-05-11T02:28:57.400Z,73005.56
2023-05-11T02:29:29.852Z,73003.59
2023-05-11T02:30:02.616Z,73005.56
2023-05-11T02:30:42.473Z,73005.56
2023-05-11T02:31:20.723Z,73005.56
2023-05-11T02:32:12.340Z,73007.56
2023-05-11T02:32:48.504Z,73005.56
2023-05-11T02:33:22.498Z,73001.59
2023-05-11T02:34:00.133Z,73003.59
2023-05-11T02:34:37.796Z,73005.56
2023-05-11T02:35:16.591Z,73007.56
2023-05-11T02:35:53.338Z,73001.59
2023-05-11T02:36:28.685Z,73005.56
2023-05-11T02:37:04.365Z,73005.56
2023-05-11T02:37:44.780Z,73005.56
2023-05-11T02:38:18.334Z,73005.56
2023-05-11T02:38:52.471Z,73005.56
2023-05-11T02:39:27.665Z,73003.59
2023-05-11T02:40:01.597Z,73005.56
2023-05-11T02:40:41.168Z,73009.56
2023-05-11T02:41:20.852Z,73005.56
2023-05-11T02:41:59.136Z,73005.56
2023-05-11T02:42:41.022Z,73007.56
2023-05-11T02:43:15.040Z,73003.59
2023-05-11T02:43:56.392Z,73001.59
2023-05-11T02:44:34.638Z,73007.56
2023-05-11T02:45:09.113Z,73001.59
2023-05-11T02:45:44.030Z,73001.59
2023-05-11T02:46:23.954Z,72997.59
2023-05-11T02:46:57.220Z,73001.59
2023-05-11T02:47:33.069Z,73001.59
2023-05-11T02:48:12.065Z,73001.59
2023-05-11T02:48:47.706Z,72993.59
2023-05-11T02:49:23.487Z,72993.59
2023-05-11T02:50:00.492Z,72993.59
2023-05-11T02:50:38.263Z,72997.59
2023-05-11T02:51:11.790Z,72997.59
2023-05-11T02:51:53.754Z,72993.59
2023-05-11T02:52:27.784Z,72993.59
2023-05-11T02:53:02.595Z,72987.63
2023-05-11T02:53:39.539Z,72997.59
2023-05-11T02:54:13.001Z,72991.59
2023-05-11T02:54:51.066Z,72993.59
2023-05-11T02:55:27.315Z,72991.59
2023-05-11T02:55:59.851Z,72991.59
2023-05-11T02:56:32.407Z,72993.59
2023-05-11T02:57:07.571Z,72993.59
2023-05-11T02:57:41.440Z,72993.59
2023-05-11T02:58:15.430Z,72991.59
2023-05-11T02:58:54.293Z,72993.59
2023-05-11T02:59:31.404Z,72989.59
2023-05-11T03:00:04.297Z,72987.63
2023-05-11T03:00:39.428Z,72985.63
2023-05-11T03:01:13.440Z,72985.63
2023-05-11T03:01:48.709Z,72989.59
2023-05-11T03:02:23.907Z,72989.59
2023-05-11T03:02:56.512Z,72989.59
2023-05-11T03:03:29.301Z,72987.63
2023-05-11T03:04:07.214Z,72983.63
2023-05-11T03:04:39.691Z,72985.63
2023-05-11T03:05:12.183Z,72985.63
2023-05-11T03:05:47.145Z,72983.63
2023-05-11T03:06:19.500Z,72985.63
2023-05-11T03:06:51.925Z,72985.63
2023-05-11T03:07:24.315Z,72983.63
2023-05-11T03:08:01.471Z,72983.63
2023-05-11T03:08:34.870Z,72985.63
2023-05-11T03:09:09.935Z,72985.63
2023-05-11T03:09:51.050Z,72977.63
2023-05-11T03:10:24.091Z,72981.63
2023-05-11T03:10:58.549Z,72979.63
2023-05-11T03:11:33.658Z,72981.63
2023-05-11T03:12:06.888Z,72981.63
2023-05-11T03:12:41.208Z,72981.63
2023-05-11T03:13:16.873Z,72981.63
2023-05-11T03:13:50.512Z,72985.63
2023-05-11T03:14:24.069Z,72985.63
2023-05-11T03:14:59.246Z,72981.63
2023-05-11T03:15:31.853Z,72981.63
2023-05-11T03:16:07.252Z,72977.63
2023-05-11T03:16:44.183Z,72981.63
2023-05-11T03:17:20.432Z,72981.63
2023-05-11T03:17:53.270Z,72985.63
2023-05-11T03:18:28.890Z,72985.63
2023-05-11T03:19:02.118Z,72989.59
2023-05-11T03:19:34.559Z,72989.59
2023-05-11T03:20:08.732Z,72993.59
2023-05-11T03:20:45.533Z,72989.59
2023-05-11T03:21:21.559Z,72987.63
2023-05-11T03:21:54.904Z,72985.63
2023-05-11T03:22:30.399Z,72989.59
2023-05-11T03:23:02.784Z,72985.63
2023-05-11T03:23:35.998Z,72987.63
2023-05-11T03:24:11.379Z,72989.59
2023-05-11T03:24:44.066Z,72985.63
2023-05-11T03:25:16.654Z,72983.63
2023-05-11T03:25:52.093Z,72989.59
2023-05-11T03:26:24.599Z,72985.63
2023-05-11T03:26:57.410Z,72989.59
2023-05-11T03:27:36.535Z,72989.59
2023-05-11T03:28:09.576Z,72989.59
2023-05-11T03:28:44.475Z,72985.63
2023-05-11T03:29:20.187Z,72989.59
2023-05-11T03:29:53.188Z,72989.59
2023-05-11T03:30:26.284Z,72989.59
2023-05-11T03:31:03.996Z,72993.59
2023-05-11T03:31:37.725Z,72991.59
2023-05-11T03:32:10.224Z,72991.59
2023-05-11T03:32:49.888Z,72987.63
2023-05-11T03:33:22.558Z,72985.63
2023-05-11T03:33:55.485Z,72987.63
2023-05-11T03:34:31.581Z,72985.63
2023-05-11T03:35:04.765Z,72989.59
2023-05-11T03:35:37.953Z,72991.59
2023-05-11T03:36:13.937Z,72991.59
2023-05-11T03:36:47.269Z,72989.59
2023-05-11T03:37:20.251Z,72989.59
2023-05-11T03:37:55.885Z,72989.59
2023-05-11T03:38:28.853Z,72989.59
2023-05-11T03:39:02.506Z,72993.59
2023-05-11T03:39:41.836Z,72989.59
2023-05-11T03:40:15.519Z,72991.59
2023-05-11T03:40:58.629Z,72989.59
2023-05-11T03:41:35.331Z,72993.59
2023-05-11T03:42:08.391Z,72991.59
2023-05-11T03:42:42.840Z,72991.59
2023-05-11T03:43:19.928Z,72993.59
2023-05-11T03:43:56.830Z,72993.59
2023-05-11T03:44:35.156Z,72993.59
2023-05-11T03:45:10.412Z,73001.59
2023-05-11T03:45:43.522Z,72995.59
2023-05-11T03:46:21.758Z,72993.59
2023-05-11T03:46:55.271Z,72995.59
2023-05-11T03:47:28.660Z,72993.59
2023-05-11T03:48:08.090Z,72997.59
2023-05-11T03:48:41.182Z,72997.59
2023-05-11T03:49:13.910Z,72987.63
2023-05-11T03:49:50.981Z,72991.59
2023-05-11T03:50:23.470Z,72993.59
2023-05-11T03:50:56.317Z,72989.59
2023-05-11T03:51:29.395Z,72989.59
2023-05-11T03:52:04.355Z,72989.59
2023-05-11T03:52:36.807Z,72989.59
2023-05-11T03:53:09.201Z,72993.59
2023-05-11T03:53:44.355Z,72997.59
2023-05-11T03:54:16.688Z,72989.59
2023-05-11T03:54:50.139Z,72985.63
2023-05-11T03:55:27.020Z,72985.63
2023-05-11T03:55:59.450Z,72989.59
2023-05-11T03:56:32.175Z,72989.59
2023-05-11T03:57:07.308Z,72987.63
2023-05-11T03:57:40.276Z,72989.59
2023-05-11T03:58:12.650Z,72985.63
2023-05-11T03:58:47.809Z,72983.63
2023-05-11T03:59:20.432Z,72981.63
2023-05-11T03:59:52.755Z,72985.63
2023-05-11T04:00:27.886Z,72981.63
2023-05-11T04:01:00.222Z,72981.63
2023-05-11T04:01:33.797Z,72985.63
2023-05-11T04:02:08.900Z,72983.63
2023-05-11T04:02:41.575Z,72977.63
2023-05-11T04:03:16.895Z,72979.63
2023-05-11T04:03:52.488Z,72977.63
2023-05-11T04:04:29.999Z,72983.63
2023-05-11T04:05:07.898Z,72981.63
2023-05-11T04:05:43.749Z,72983.63
2023-05-11T04:06:18.669Z,72985.63
2023-05-11T04:06:53.953Z,72985.63
2023-05-11T04:07:33.064Z,72977.63
2023-05-11T04:08:06.162Z,72981.63
2023-05-11T04:08:41.096Z,72981.63
2023-05-11T04:09:13.431Z,72981.63
2023-05-11T04:09:46.075Z,72981.63
2023-05-11T04:10:21.097Z,72981.63
2023-05-11T04:10:53.397Z,72975.63
2023-05-11T04:11:27.657Z,72979.63
2023-05-11T04:12:03.193Z,72977.63
2023-05-11T04:12:35.563Z,72981.63
2023-05-11T04:13:07.888Z,72973.63
2023-05-11T04:13:42.828Z,72973.63
2023-05-11T04:14:15.151Z,72975.63
2023-05-11T04:14:47.835Z,72981.63
2023-05-11T04:15:22.841Z,72973.63
2023-05-11T04:15:55.211Z,72977.63
2023-05-11T04:16:27.652Z,72977.63
2023-05-11T04:17:03.021Z,72977.63
2023-05-11T04:17:35.391Z,72977.63
2023-05-11T04:18:07.781Z,72971.66
2023-05-11T04:18:45.367Z,72975.63
2023-05-11T04:19:17.741Z,72975.63
2023-05-11T04:19:50.272Z,72973.63
2023-05-11T04:20:25.664Z,72973.63
2023-05-11T04:20:58.019Z,72971.66
2023-05-11T04:21:32.800Z,72973.63
2023-05-11T04:22:07.757Z,72973.63
2023-05-11T04:22:40.127Z,72973.63
2023-05-11T04:23:12.446Z,72971.66
2023-05-11T04:23:47.400Z,72973.63
2023-05-11T04:24:19.733Z,72973.63
2023-05-11T04:24:52.053Z,72969.66
2023-05-11T04:25:27.693Z,72977.63
2023-05-11T04:26:00.063Z,72973.63
2023-05-11T04:26:32.469Z,72979.63
2023-05-11T04:27:07.518Z,72973.63
2023-05-11T04:27:39.924Z,72971.66
2023-05-11T04:28:12.236Z,72969.66
2023-05-11T04:28:44.563Z,72973.63
2023-05-11T04:29:19.466Z,72975.63
2023-05-11T04:29:51.793Z,72977.63
2023-05-11T04:30:24.593Z,72975.63
2023-05-11T04:31:00.012Z,72973.63
2023-05-11T04:31:32.765Z,72973.63
2023-05-11T04:32:06.246Z,72975.63
2023-05-11T04:32:41.293Z,72975.63
2023-05-11T04:33:14.845Z,72973.63
2023-05-11T04:33:49.833Z,72971.66
2023-05-11T04:34:25.854Z,72977.63
2023-05-11T04:34:58.233Z,72977.63
2023-05-11T04:35:32.728Z,72977.63
2023-05-11T04:36:09.074Z,72977.63
2023-05-11T04:36:42.357Z,72973.63
2023-05-11T04:37:14.799Z,72977.63
2023-05-11T04:37:50.680Z,72977.63
2023-05-11T04:38:23.134Z,72979.63
2023-05-11T04:38:55.471Z,72977.63
2023-05-11T04:39:30.372Z,72977.63
2023-05-11T04:40:04.450Z,72975.63
2023-05-11T04:40:43.322Z,72979.63
2023-05-11T04:41:18.816Z,72981.63
2023-05-11T04:41:51.760Z,72981.63
2023-05-11T04:42:24.157Z,72981.63
2023-05-11T04:43:01.897Z,72983.63
2023-05-11T04:43:34.465Z,72981.63
2023-05-11T04:44:06.853Z,72977.63
2023-05-11T04:44:42.364Z,72985.63
2023-05-11T04:45:15.724Z,72981.63
2023-05-11T04:45:49.063Z,72981.63
2023-05-11T04:46:27.511Z,72989.59
2023-05-11T04:46:59.996Z,72985.63
2023-05-11T04:47:32.608Z,72987.63
2023-05-11T04:48:09.357Z,72987.63
2023-05-11T04:48:42.004Z,72985.63
2023-05-11T04:49:17.407Z,72985.63
2023-05-11T04:49:52.625Z,72985.63
2023-05-11T04:50:25.267Z,72989.59
2023-05-11T04:50:58.318Z,72977.63
2023-05-11T04:51:37.871Z,72987.63
2023-05-11T04:52:10.243Z,72985.63
2023-05-11T04:52:43.004Z,72981.63
2023-05-11T04:53:17.970Z,72985.63
2023-05-11T04:53:51.774Z,72981.63
2023-05-11T04:54:24.529Z,72983.63
2023-05-11T04:54:59.470Z,72981.63
2023-05-11T04:55:31.939Z,72985.63
2023-05-11T04:56:06.000Z,72979.63
2023-05-11T04:56:41.266Z,72987.63
2023-05-11T04:57:14.250Z,72985.63
2023-05-11T04:57:46.595Z,72985.63
2023-05-11T04:58:18.953Z,72981.63
2023-05-11T04:58:53.899Z,72985.63
2023-05-11T04:59:26.257Z,72985.63
2023-05-11T04:59:58.635Z,72983.63
2023-05-11T05:00:33.914Z,72983.63
2023-05-11T05:01:06.354Z,72987.63
2023-05-11T05:01:38.740Z,72979.63
2023-05-11T05:02:13.689Z,72983.63
2023-05-11T05:02:46.046Z,72987.63
2023-05-11T05:03:18.424Z,72987.63
2023-05-11T05:03:53.482Z,72991.59
2023-05-11T05:04:28.580Z,72993.59
2023-05-11T05:05:01.015Z,72991.59
2023-05-11T05:05:35.948Z,72989.59
2023-05-11T05:06:08.869Z,72983.63
2023-05-11T05:06:42.848Z,72985.63
2023-05-11T05:07:17.779Z,72985.63
2023-05-11T05:07:50.133Z,72985.63
2023-05-11T05:08:22.611Z,72989.59
2023-05-11T05:08:57.526Z,72987.63
2023-05-11T05:09:29.837Z,72987.63
2023-05-11T05:10:04.127Z,72985.63
2023-05-11T05:10:39.618Z,72985.63
2023-05-11T05:11:12.468Z,72991.59
2023-05-11T05:11:44.825Z,72989.59
2023-05-11T05:12:20.946Z,72989.59
2023-05-11T05:12:53.631Z,72987.63
2023-05-11T05:13:26.353Z,72989.59
2023-05-11T05:14:01.313Z,72987.63
2023-05-11T05:14:33.774Z,72991.59
2023-05-11T05:15:07.707Z,72985.63
2023-05-11T05:15:43.513Z,72985.63
2023-05-11T05:16:16.108Z,72985.63
2023-05-11T05:16:48.516Z,72987.63
2023-05-11T05:17:23.636Z,72985.63
2023-05-11T05:17:56.010Z,72989.59
2023-05-11T05:18:28.660Z,72989.59
2023-05-11T05:19:03.784Z,72985.63
2023-05-11T05:19:39.636Z,72989.59
2023-05-11T05:20:12.527Z,72985.63
2023-05-11T05:20:47.444Z,72985.63
2023-05-11T05:21:19.774Z,72989.59
2023-05-11T05:21:53.740Z,72985.63
2023-05-11T05:22:28.819Z,72983.63
2023-05-11T05:23:01.852Z,72985.63
2023-05-11T05:23:36.905Z,72987.63
2023-05-11T05:24:11.511Z,72985.63
2023-05-11T05:24:44.406Z,72987.63
2023-05-11T05:25:19.498Z,72989.59
2023-05-11T05:25:52.220Z,72989.59
2023-05-11T05:26:27.200Z,72991.59
2023-05-11T05:27:00.005Z,72989.59
2023-05-11T05:27:34.867Z,72985.63
2023-05-11T05:28:12.477Z,72989.59
2023-05-11T05:28:45.125Z,72991.59
2023-05-11T05:29:17.492Z,72985.63
2023-05-11T05:29:52.407Z,72983.63
2023-05-11T05:30:24.830Z,72985.63
2023-05-11T05:30:57.271Z,72989.59
2023-05-11T05:31:35.092Z,72985.63
2023-05-11T05:32:08.008Z,72989.59
2023-05-11T05:32:40.387Z,72989.59
2023-05-11T05:33:15.380Z,72989.59
2023-05-11T05:33:47.734Z,72985.63
2023-05-11T05:34:20.054Z,72989.59
2023-05-11T05:34:58.276Z,72989.59
2023-05-11T05:35:30.868Z,72989.59
2023-05-11T05:36:03.686Z,72985.63
2023-05-11T05:36:39.373Z,72989.59
2023-05-11T05:37:11.861Z,72989.59
2023-05-11T05:37:44.261Z,72989.59
2023-05-11T05:38:20.423Z,72989.59
2023-05-11T05:38:53.033Z,72987.63
2023-05-11T05:39:27.945Z,72989.59
2023-05-11T05:40:00.300Z,72989.59
2023-05-11T05:40:32.646Z,72985.63
2023-05-11T05:41:08.613Z,72983.63
2023-05-11T05:41:44.366Z,72985.63
2023-05-11T05:42:16.717Z,72991.59
2023-05-11T05:42:49.282Z,72989.59
2023-05-11T05:43:28.525Z,72983.63
2023-05-11T05:44:00.983Z,72985.63
2023-05-11T05:44:33.456Z,72981.63
2023-05-11T05:45:06.911Z,72981.63
2023-05-11T05:45:41.969Z,72985.63
2023-05-11T05:46:16.436Z,72981.63
2023-05-11T05:46:48.917Z,72987.63
2023-05-11T05:47:23.999Z,72983.63
2023-05-11T05:47:57.341Z,72987.63
2023-05-11T05:48:29.737Z,72985.63
2023-05-11T05:49:04.652Z,72985.63
2023-05-11T05:49:37.110Z,72989.59
2023-05-11T05:50:13.936Z,72985.63
2023-05-11T05:50:49.889Z,72985.63
2023-05-11T05:51:22.784Z,72993.59
2023-05-11T05:51:55.157Z,72985.63
2023-05-11T05:52:27.588Z,72987.63
2023-05-11T05:53:02.606Z,72989.59
2023-05-11T05:53:36.111Z,72983.63
2023-05-11T05:54:11.385Z,72985.63
2023-05-11T05:54:43.697Z,72987.63
2023-05-11T05:55:16.880Z,72987.63
2023-05-11T05:55:53.786Z,72985.63
2023-05-11T05:56:27.193Z,72987.63
2023-05-11T05:56:59.702Z,72989.59
2023-05-11T05:57:35.001Z,72991.59
2023-05-11T05:58:08.268Z,72989.59
2023-05-11T05:58:41.040Z,72987.63
2023-05-11T05:59:16.154Z,72989.59
2023-05-11T05:59:48.684Z,72989.59
2023-05-11T06:00:23.911Z,72989.59
2023-05-11T06:01:08.819Z,72993.59
2023-05-11T06:01:45.891Z,72985.63
2023-05-11T06:02:20.216Z,72993.59
2023-05-11T06:02:55.670Z,72993.59
2023-05-11T06:03:31.467Z,72993.59
2023-05-11T06:04:04.171Z,72993.59
2023-05-11T06:04:40.207Z,72989.59
2023-05-11T06:05:15.377Z,72997.59
2023-05-11T06:05:47.974Z,72993.59
2023-05-11T06:06:22.955Z,72995.59
2023-05-11T06:06:56.215Z,72993.59
2023-05-11T06:07:29.114Z,72993.59
2023-05-11T06:08:10.475Z,72995.59
2023-05-11T06:08:44.317Z,72997.59
2023-05-11T06:09:17.621Z,72997.59
2023-05-11T06:09:52.527Z,72997.59
2023-05-11T06:10:24.849Z,72999.59
2023-05-11T06:10:57.300Z,72999.59
2023-05-11T06:11:32.328Z,72997.59
2023-05-11T06:12:05.317Z,72999.59
2023-05-11T06:12:42.077Z,72997.59
2023-05-11T06:13:14.484Z,73001.59
2023-05-11T06:13:48.418Z,72997.59
2023-05-11T06:14:23.543Z,72999.59
2023-05-11T06:14:56.903Z,72997.59
2023-05-11T06:15:29.955Z,73001.59
2023-05-11T06:16:10.888Z,73001.59
2023-05-11T06:16:43.280Z,72997.59
2023-05-11T06:17:15.658Z,72997.59
2023-05-11T06:17:50.587Z,72997.59
2023-05-11T06:18:23.043Z,72993.59
2023-05-11T06:18:55.468Z,73001.59
2023-05-11T06:19:30.745Z,72997.59
2023-05-11T06:20:06.289Z,72997.59
2023-05-11T06:20:43.913Z,72997.59
2023-05-11T06:21:17.614Z,72997.59
2023-05-11T06:21:49.979Z,73001.59
2023-05-11T06:22:25.052Z,72997.59
2023-05-11T06:22:57.379Z,72995.59
2023-05-11T06:23:34.285Z,72997.59
2023-05-11T06:24:07.218Z,72995.59
2023-05-11T06:24:40.870Z,72997.59
2023-05-11T06:25:16.254Z,72993.59
2023-05-11T06:25:50.948Z,72995.59
2023-05-11T06:26:25.981Z,72997.59
2023-05-11T06:26:59.050Z,72997.59
2023-05-11T06:27:31.804Z,72993.59
2023-05-11T06:28:08.214Z,72993.59
2023-05-11T06:28:42.394Z,72997.59
2023-05-11T06:29:20.144Z,72999.59
2023-05-11T06:29:55.670Z,72999.59
2023-05-11T06:30:28.242Z,72997.59
2023-05-11T06:31:00.788Z,72989.59
2023-05-11T06:31:40.792Z,72993.59
2023-05-11T06:32:15.104Z,72997.59
2023-05-11T06:32:48.294Z,72993.59
2023-05-11T06:33:26.190Z,72993.59
2023-05-11T06:33:59.391Z,72993.59
2023-05-11T06:34:33.912Z,72995.59
2023-05-11T06:35:10.605Z,72995.59
2023-05-11T06:35:45.810Z,72993.59
2023-05-11T06:36:22.665Z,72997.59
2023-05-11T06:36:55.001Z,72999.59
2023-05-11T06:37:29.673Z,72991.59
2023-05-11T06:38:04.649Z,72991.59
2023-05-11T06:38:37.817Z,72993.59
2023-05-11T06:39:10.369Z,72993.59
2023-05-11T06:39:45.314Z,72993.59
2023-05-11T06:40:17.859Z,72989.59
2023-05-11T06:40:52.761Z,72989.59
2023-05-11T06:41:27.712Z,72989.59
2023-05-11T06:42:02.961Z,72989.59
2023-05-11T06:42:37.481Z,72989.59
2023-05-11T06:43:15.668Z,72987.63
2023-05-11T06:43:53.050Z,72985.63
2023-05-11T06:44:34.465Z,72989.59
2023-05-11T06:45:09.450Z,72991.59
2023-05-11T06:45:42.055Z,72989.59
2023-05-11T06:46:18.188Z,72987.63
2023-05-11T06:46:50.885Z,72989.59
2023-05-11T06:47:23.218Z,72985.63
2023-05-11T06:47:58.218Z,72985.63
2023-05-11T06:48:30.628Z,72985.63
2023-05-11T06:49:04.291Z,72985.63